sensor_id;sensor_type;location;lat;lon;timestamp;P1;durP1;ratioP1;P2;durP2;ratioP2
29664;SDS011;19584;48.722;9.106;2022-07-01T00:00:54;0.28;;;0.28;;
29664;SDS011;19584;48.722;9.106;2022-07-01T00:02:56;1.65;;;0.20;;
29664;SDS011;19584;48.722;9.106;2022-07-01T00:04:58;0.50;;;0.32;;
29664;SDS011;19584;48.722;9.106;2022-07-01T00:06:59;0.20;;;0.20;;
29664;SDS011;19584;48.722;9.106;2022-07-01T00:09:01;0.40;;;0.40;;
29664;SDS011;19584;48.722;9.106;2022-07-01T00:11:05;1.52;;;0.30;;
29664;SDS011;19584;48.722;9.106;2022-07-01T00:13:07;1.42;;;0.30;;
29664;SDS011;19584;48.722;9.106;2022-07-01T00:15:09;0.40;;;0.20;;
29664;SDS011;19584;48.722;9.106;2022-07-01T00:17:11;0.47;;;0.28;;
29664;SDS011;19584;48.722;9.106;2022-07-01T00:19:13;0.30;;;0.20;;
29664;SDS011;19584;48.722;9.106;2022-07-01T00:21:14;0.57;;;0.40;;
29664;SDS011;19584;48.722;9.106;2022-07-01T00:23:16;0.10;;;0.10;;
29664;SDS011;19584;48.722;9.106;2022-07-01T00:25:18;0.32;;;0.20;;
29664;SDS011;19584;48.722;9.106;2022-07-01T00:27:20;0.88;;;0.30;;
29664;SDS011;19584;48.722;9.106;2022-07-01T00:29:23;0.20;;;0.20;;
29664;SDS011;19584;48.722;9.106;2022-07-01T00:31:25;2.30;;;0.30;;
29664;SDS011;19584;48.722;9.106;2022-07-01T00:33:26;1.35;;;0.20;;
29664;SDS011;19584;48.722;9.106;2022-07-01T00:35:28;0.30;;;0.20;;
29664;SDS011;19584;48.722;9.106;2022-07-01T00:37:30;0.10;;;0.10;;
29664;SDS011;19584;48.722;9.106;2022-07-01T00:39:32;0.35;;;0.25;;
29664;SDS011;19584;48.722;9.106;2022-07-01T00:41:35;0.20;;;0.20;;
29664;SDS011;19584;48.722;9.106;2022-07-01T00:43:38;1.25;;;0.28;;
29664;SDS011;19584;48.722;9.106;2022-07-01T00:45:56;0.77;;;0.30;;
29664;SDS011;19584;48.722;9.106;2022-07-01T00:47:58;0.85;;;0.20;;
29664;SDS011;19584;48.722;9.106;2022-07-01T00:50:00;0.57;;;0.20;;
29664;SDS011;19584;48.722;9.106;2022-07-01T00:52:01;1.95;;;0.20;;
29664;SDS011;19584;48.722;9.106;2022-07-01T00:54:03;0.28;;;0.20;;
29664;SDS011;19584;48.722;9.106;2022-07-01T00:56:05;0.68;;;0.30;;
29664;SDS011;19584;48.722;9.106;2022-07-01T00:58:08;0.38;;;0.25;;
29664;SDS011;19584;48.722;9.106;2022-07-01T01:00:11;0.15;;;0.15;;
29664;SDS011;19584;48.722;9.106;2022-07-01T01:02:16;0.20;;;0.15;;
29664;SDS011;19584;48.722;9.106;2022-07-01T01:04:17;0.28;;;0.20;;
29664;SDS011;19584;48.722;9.106;2022-07-01T01:06:19;1.95;;;0.30;;
29664;SDS011;19584;48.722;9.106;2022-07-01T01:08:21;0.63;;;0.20;;
29664;SDS011;19584;48.722;9.106;2022-07-01T01:10:22;2.47;;;0.30;;
29664;SDS011;19584;48.722;9.106;2022-07-01T01:12:26;0.50;;;0.30;;
29664;SDS011;19584;48.722;9.106;2022-07-01T01:14:27;0.38;;;0.30;;
29664;SDS011;19584;48.722;9.106;2022-07-01T01:16:29;1.10;;;0.20;;
29664;SDS011;19584;48.722;9.106;2022-07-01T01:18:31;0.40;;;0.20;;
29664;SDS011;19584;48.722;9.106;2022-07-01T01:20:35;0.20;;;0.20;;
29664;SDS011;19584;48.722;9.106;2022-07-01T01:22:37;1.42;;;0.20;;
29664;SDS011;19584;48.722;9.106;2022-07-01T01:24:40;1.45;;;0.20;;
29664;SDS011;19584;48.722;9.106;2022-07-01T01:26:42;0.20;;;0.10;;
29664;SDS011;19584;48.722;9.106;2022-07-01T01:28:44;0.65;;;0.20;;
29664;SDS011;19584;48.722;9.106;2022-07-01T01:30:45;0.20;;;0.20;;
29664;SDS011;19584;48.722;9.106;2022-07-01T01:32:47;0.57;;;0.10;;
29664;SDS011;19584;48.722;9.106;2022-07-01T01:34:50;0.20;;;0.20;;
29664;SDS011;19584;48.722;9.106;2022-07-01T01:36:52;0.40;;;0.20;;
29664;SDS011;19584;48.722;9.106;2022-07-01T01:38:54;0.13;;;0.13;;
29664;SDS011;19584;48.722;9.106;2022-07-01T01:41:00;0.85;;;0.10;;
29664;SDS011;19584;48.722;9.106;2022-07-01T01:43:02;0.38;;;0.10;;
29664;SDS011;19584;48.722;9.106;2022-07-01T01:45:04;0.10;;;0.10;;
29664;SDS011;19584;48.722;9.106;2022-07-01T01:47:06;0.13;;;0.13;;
29664;SDS011;19584;48.722;9.106;2022-07-01T01:49:08;0.43;;;0.13;;
29664;SDS011;19584;48.722;9.106;2022-07-01T01:51:09;0.15;;;0.10;;
29664;SDS011;19584;48.722;9.106;2022-07-01T01:53:11;0.85;;;0.20;;
29664;SDS011;19584;48.722;9.106;2022-07-01T01:55:13;0.00;;;0.00;;
29664;SDS011;19584;48.722;9.106;2022-07-01T01:57:15;1.77;;;0.20;;
29664;SDS011;19584;48.722;9.106;2022-07-01T01:59:17;0.20;;;0.15;;
29664;SDS011;19584;48.722;9.106;2022-07-01T02:01:19;0.20;;;0.20;;
29664;SDS011;19584;48.722;9.106;2022-07-01T02:03:21;0.00;;;0.00;;
29664;SDS011;19584;48.722;9.106;2022-07-01T02:05:23;0.68;;;0.20;;
29664;SDS011;19584;48.722;9.106;2022-07-01T02:07:24;0.45;;;0.10;;
29664;SDS011;19584;48.722;9.106;2022-07-01T02:09:26;0.03;;;0.00;;
29664;SDS011;19584;48.722;9.106;2022-07-01T02:11:29;0.60;;;0.20;;
29664;SDS011;19584;48.722;9.106;2022-07-01T02:13:31;0.10;;;0.10;;
29664;SDS011;19584;48.722;9.106;2022-07-01T02:15:33;0.35;;;0.20;;
29664;SDS011;19584;48.722;9.106;2022-07-01T02:17:34;0.77;;;0.28;;
29664;SDS011;19584;48.722;9.106;2022-07-01T02:19:36;0.43;;;0.15;;
29664;SDS011;19584;48.722;9.106;2022-07-01T02:21:38;0.28;;;0.10;;
29664;SDS011;19584;48.722;9.106;2022-07-01T02:23:39;1.75;;;0.10;;
29664;SDS011;19584;48.722;9.106;2022-07-01T02:25:41;0.32;;;0.10;;
29664;SDS011;19584;48.722;9.106;2022-07-01T02:27:43;0.17;;;0.05;;
29664;SDS011;19584;48.722;9.106;2022-07-01T02:29:45;1.00;;;0.28;;
29664;SDS011;19584;48.722;9.106;2022-07-01T02:31:46;0.45;;;0.40;;
29664;SDS011;19584;48.722;9.106;2022-07-01T02:33:48;0.20;;;0.20;;
29664;SDS011;19584;48.722;9.106;2022-07-01T02:35:50;0.40;;;0.20;;
29664;SDS011;19584;48.722;9.106;2022-07-01T02:37:52;0.10;;;0.10;;
29664;SDS011;19584;48.722;9.106;2022-07-01T02:39:53;0.10;;;0.10;;
29664;SDS011;19584;48.722;9.106;2022-07-01T02:41:55;0.17;;;0.10;;
29664;SDS011;19584;48.722;9.106;2022-07-01T02:44:16;0.70;;;0.10;;
29664;SDS011;19584;48.722;9.106;2022-07-01T02:46:17;0.17;;;0.17;;
29664;SDS011;19584;48.722;9.106;2022-07-01T02:48:19;0.30;;;0.20;;
29664;SDS011;19584;48.722;9.106;2022-07-01T02:50:21;0.63;;;0.20;;
29664;SDS011;19584;48.722;9.106;2022-07-01T02:52:30;0.32;;;0.13;;
29664;SDS011;19584;48.722;9.106;2022-07-01T02:54:33;0.73;;;0.30;;
29664;SDS011;19584;48.722;9.106;2022-07-01T02:56:35;0.20;;;0.20;;
29664;SDS011;19584;48.722;9.106;2022-07-01T02:58:37;0.32;;;0.20;;
29664;SDS011;19584;48.722;9.106;2022-07-01T03:00:38;0.10;;;0.10;;
29664;SDS011;19584;48.722;9.106;2022-07-01T03:02:40;0.40;;;0.10;;
29664;SDS011;19584;48.722;9.106;2022-07-01T03:04:42;0.10;;;0.10;;
29664;SDS011;19584;48.722;9.106;2022-07-01T03:06:44;0.20;;;0.20;;
29664;SDS011;19584;48.722;9.106;2022-07-01T03:08:45;0.17;;;0.17;;
29664;SDS011;19584;48.722;9.106;2022-07-01T03:10:47;0.70;;;0.13;;
29664;SDS011;19584;48.722;9.106;2022-07-01T03:12:49;0.28;;;0.20;;
29664;SDS011;19584;48.722;9.106;2022-07-01T03:14:51;0.22;;;0.22;;
29664;SDS011;19584;48.722;9.106;2022-07-01T03:16:54;0.73;;;0.30;;
29664;SDS011;19584;48.722;9.106;2022-07-01T03:18:55;1.58;;;0.40;;
29664;SDS011;19584;48.722;9.106;2022-07-01T03:20:58;0.32;;;0.30;;
29664;SDS011;19584;48.722;9.106;2022-07-01T03:23:00;0.68;;;0.38;;
29664;SDS011;19584;48.722;9.106;2022-07-01T03:25:02;0.30;;;0.28;;
29664;SDS011;19584;48.722;9.106;2022-07-01T03:27:05;0.65;;;0.30;;
29664;SDS011;19584;48.722;9.106;2022-07-01T03:29:06;0.25;;;0.25;;
29664;SDS011;19584;48.722;9.106;2022-07-01T03:31:08;0.20;;;0.20;;
29664;SDS011;19584;48.722;9.106;2022-07-01T03:33:10;0.73;;;0.55;;
29664;SDS011;19584;48.722;9.106;2022-07-01T03:35:12;1.67;;;0.22;;
29664;SDS011;19584;48.722;9.106;2022-07-01T03:37:32;0.77;;;0.40;;
29664;SDS011;19584;48.722;9.106;2022-07-01T03:39:34;0.32;;;0.30;;
29664;SDS011;19584;48.722;9.106;2022-07-01T03:41:36;0.30;;;0.30;;
29664;SDS011;19584;48.722;9.106;2022-07-01T03:43:38;0.35;;;0.30;;
29664;SDS011;19584;48.722;9.106;2022-07-01T03:45:40;0.43;;;0.30;;
29664;SDS011;19584;48.722;9.106;2022-07-01T03:47:45;0.20;;;0.20;;
29664;SDS011;19584;48.722;9.106;2022-07-01T03:49:47;0.20;;;0.20;;
29664;SDS011;19584;48.722;9.106;2022-07-01T03:51:49;0.13;;;0.10;;
29664;SDS011;19584;48.722;9.106;2022-07-01T03:53:51;0.28;;;0.20;;
29664;SDS011;19584;48.722;9.106;2022-07-01T03:56:11;0.20;;;0.20;;
29664;SDS011;19584;48.722;9.106;2022-07-01T03:58:13;0.20;;;0.20;;
29664;SDS011;19584;48.722;9.106;2022-07-01T04:00:19;0.35;;;0.35;;
29664;SDS011;19584;48.722;9.106;2022-07-01T04:02:21;0.25;;;0.20;;
29664;SDS011;19584;48.722;9.106;2022-07-01T04:04:23;0.20;;;0.20;;
29664;SDS011;19584;48.722;9.106;2022-07-01T04:06:26;0.22;;;0.20;;
29664;SDS011;19584;48.722;9.106;2022-07-01T04:08:27;0.77;;;0.40;;
29664;SDS011;19584;48.722;9.106;2022-07-01T04:10:30;0.35;;;0.20;;
29664;SDS011;19584;48.722;9.106;2022-07-01T04:12:34;0.22;;;0.17;;
29664;SDS011;19584;48.722;9.106;2022-07-01T04:14:35;0.20;;;0.17;;
29664;SDS011;19584;48.722;9.106;2022-07-01T04:16:38;0.32;;;0.15;;
29664;SDS011;19584;48.722;9.106;2022-07-01T04:18:40;0.15;;;0.10;;
29664;SDS011;19584;48.722;9.106;2022-07-01T04:20:42;0.52;;;0.25;;
29664;SDS011;19584;48.722;9.106;2022-07-01T04:23:04;0.10;;;0.10;;
29664;SDS011;19584;48.722;9.106;2022-07-01T04:25:06;0.52;;;0.20;;
29664;SDS011;19584;48.722;9.106;2022-07-01T04:27:08;0.40;;;0.10;;
29664;SDS011;19584;48.722;9.106;2022-07-01T04:29:10;0.38;;;0.20;;
29664;SDS011;19584;48.722;9.106;2022-07-01T04:31:12;0.52;;;0.20;;
29664;SDS011;19584;48.722;9.106;2022-07-01T04:33:14;0.10;;;0.10;;
29664;SDS011;19584;48.722;9.106;2022-07-01T04:35:15;0.17;;;0.15;;
29664;SDS011;19584;48.722;9.106;2022-07-01T04:37:17;0.17;;;0.10;;
29664;SDS011;19584;48.722;9.106;2022-07-01T04:39:19;1.85;;;0.10;;
29664;SDS011;19584;48.722;9.106;2022-07-01T04:41:21;0.20;;;0.20;;
29664;SDS011;19584;48.722;9.106;2022-07-01T04:43:41;0.68;;;0.10;;
29664;SDS011;19584;48.722;9.106;2022-07-01T04:45:43;1.02;;;0.13;;
29664;SDS011;19584;48.722;9.106;2022-07-01T04:47:44;0.40;;;0.20;;
29664;SDS011;19584;48.722;9.106;2022-07-01T04:49:46;0.20;;;0.17;;
29664;SDS011;19584;48.722;9.106;2022-07-01T04:51:48;0.20;;;0.20;;
29664;SDS011;19584;48.722;9.106;2022-07-01T04:53:50;0.30;;;0.30;;
29664;SDS011;19584;48.722;9.106;2022-07-01T04:55:52;1.42;;;0.17;;
29664;SDS011;19584;48.722;9.106;2022-07-01T04:57:53;0.25;;;0.20;;
29664;SDS011;19584;48.722;9.106;2022-07-01T04:59:55;0.28;;;0.10;;
29664;SDS011;19584;48.722;9.106;2022-07-01T05:01:57;0.57;;;0.30;;
29664;SDS011;19584;48.722;9.106;2022-07-01T05:03:59;1.17;;;0.20;;
29664;SDS011;19584;48.722;9.106;2022-07-01T05:06:01;1.02;;;0.20;;
29664;SDS011;19584;48.722;9.106;2022-07-01T05:08:03;1.35;;;0.17;;
29664;SDS011;19584;48.722;9.106;2022-07-01T05:10:05;2.97;;;0.30;;
29664;SDS011;19584;48.722;9.106;2022-07-01T05:12:08;0.40;;;0.10;;
29664;SDS011;19584;48.722;9.106;2022-07-01T05:14:10;1.25;;;0.15;;
29664;SDS011;19584;48.722;9.106;2022-07-01T05:16:11;1.13;;;0.30;;
29664;SDS011;19584;48.722;9.106;2022-07-01T05:18:13;0.32;;;0.10;;
29664;SDS011;19584;48.722;9.106;2022-07-01T05:20:34;1.25;;;0.20;;
29664;SDS011;19584;48.722;9.106;2022-07-01T05:22:54;0.80;;;0.45;;
29664;SDS011;19584;48.722;9.106;2022-07-01T05:24:55;1.52;;;0.30;;
29664;SDS011;19584;48.722;9.106;2022-07-01T05:26:58;3.33;;;0.30;;
29664;SDS011;19584;48.722;9.106;2022-07-01T05:29:01;0.45;;;0.20;;
29664;SDS011;19584;48.722;9.106;2022-07-01T05:31:02;2.15;;;0.32;;
29664;SDS011;19584;48.722;9.106;2022-07-01T05:33:04;2.50;;;0.43;;
29664;SDS011;19584;48.722;9.106;2022-07-01T05:35:06;2.58;;;0.30;;
29664;SDS011;19584;48.722;9.106;2022-07-01T05:37:08;2.17;;;0.35;;
29664;SDS011;19584;48.722;9.106;2022-07-01T05:39:10;1.40;;;0.50;;
29664;SDS011;19584;48.722;9.106;2022-07-01T05:41:12;1.15;;;0.40;;
29664;SDS011;19584;48.722;9.106;2022-07-01T05:43:14;2.35;;;0.20;;
29664;SDS011;19584;48.722;9.106;2022-07-01T05:45:16;0.50;;;0.50;;
29664;SDS011;19584;48.722;9.106;2022-07-01T05:47:18;1.48;;;0.40;;
29664;SDS011;19584;48.722;9.106;2022-07-01T05:49:19;6.10;;;0.55;;
29664;SDS011;19584;48.722;9.106;2022-07-01T05:51:21;2.47;;;0.40;;
29664;SDS011;19584;48.722;9.106;2022-07-01T05:53:23;0.22;;;0.20;;
29664;SDS011;19584;48.722;9.106;2022-07-01T05:55:25;1.55;;;0.28;;
29664;SDS011;19584;48.722;9.106;2022-07-01T05:57:26;3.97;;;0.40;;
29664;SDS011;19584;48.722;9.106;2022-07-01T05:59:28;0.93;;;0.20;;
29664;SDS011;19584;48.722;9.106;2022-07-01T06:01:30;2.22;;;0.20;;
29664;SDS011;19584;48.722;9.106;2022-07-01T06:03:32;1.40;;;0.60;;
29664;SDS011;19584;48.722;9.106;2022-07-01T06:05:34;0.28;;;0.25;;
29664;SDS011;19584;48.722;9.106;2022-07-01T06:07:35;0.47;;;0.30;;
29664;SDS011;19584;48.722;9.106;2022-07-01T06:09:37;0.63;;;0.30;;
29664;SDS011;19584;48.722;9.106;2022-07-01T06:11:39;1.13;;;0.20;;
29664;SDS011;19584;48.722;9.106;2022-07-01T06:13:41;1.67;;;0.30;;
29664;SDS011;19584;48.722;9.106;2022-07-01T06:15:42;0.75;;;0.30;;
29664;SDS011;19584;48.722;9.106;2022-07-01T06:17:44;0.20;;;0.20;;
29664;SDS011;19584;48.722;9.106;2022-07-01T06:19:46;1.00;;;0.20;;
29664;SDS011;19584;48.722;9.106;2022-07-01T06:21:48;0.35;;;0.20;;
29664;SDS011;19584;48.722;9.106;2022-07-01T06:23:50;0.30;;;0.20;;
29664;SDS011;19584;48.722;9.106;2022-07-01T06:25:51;0.10;;;0.10;;
29664;SDS011;19584;48.722;9.106;2022-07-01T06:27:53;0.52;;;0.20;;
29664;SDS011;19584;48.722;9.106;2022-07-01T06:29:55;0.88;;;0.10;;
29664;SDS011;19584;48.722;9.106;2022-07-01T06:31:57;0.15;;;0.10;;
29664;SDS011;19584;48.722;9.106;2022-07-01T06:33:59;0.70;;;0.30;;
29664;SDS011;19584;48.722;9.106;2022-07-01T06:36:01;0.30;;;0.20;;
29664;SDS011;19584;48.722;9.106;2022-07-01T06:38:03;0.20;;;0.10;;
29664;SDS011;19584;48.722;9.106;2022-07-01T06:40:05;0.20;;;0.20;;
29664;SDS011;19584;48.722;9.106;2022-07-01T06:42:07;0.28;;;0.10;;
29664;SDS011;19584;48.722;9.106;2022-07-01T06:44:09;1.52;;;0.30;;
29664;SDS011;19584;48.722;9.106;2022-07-01T06:46:11;1.30;;;0.25;;
29664;SDS011;19584;48.722;9.106;2022-07-01T06:48:13;6.38;;;3.00;;
29664;SDS011;19584;48.722;9.106;2022-07-01T06:50:15;5.03;;;1.77;;
29664;SDS011;19584;48.722;9.106;2022-07-01T06:52:17;2.25;;;1.77;;
29664;SDS011;19584;48.722;9.106;2022-07-01T06:54:19;3.92;;;1.15;;
29664;SDS011;19584;48.722;9.106;2022-07-01T06:56:20;0.82;;;0.73;;
29664;SDS011;19584;48.722;9.106;2022-07-01T06:58:22;1.08;;;0.88;;
29664;SDS011;19584;48.722;9.106;2022-07-01T07:00:24;1.67;;;0.90;;
29664;SDS011;19584;48.722;9.106;2022-07-01T07:02:26;1.50;;;0.75;;
29664;SDS011;19584;48.722;9.106;2022-07-01T07:04:30;2.67;;;0.63;;
29664;SDS011;19584;48.722;9.106;2022-07-01T07:06:51;1.33;;;0.40;;
29664;SDS011;19584;48.722;9.106;2022-07-01T07:08:53;1.48;;;0.47;;
29664;SDS011;19584;48.722;9.106;2022-07-01T07:10:55;3.47;;;0.82;;
29664;SDS011;19584;48.722;9.106;2022-07-01T07:12:56;3.28;;;0.60;;
29664;SDS011;19584;48.722;9.106;2022-07-01T07:14:58;4.85;;;0.50;;
29664;SDS011;19584;48.722;9.106;2022-07-01T07:17:00;2.50;;;0.52;;
29664;SDS011;19584;48.722;9.106;2022-07-01T07:19:02;3.58;;;0.50;;
29664;SDS011;19584;48.722;9.106;2022-07-01T07:21:03;0.90;;;0.25;;
29664;SDS011;19584;48.722;9.106;2022-07-01T07:23:06;1.17;;;0.40;;
29664;SDS011;19584;48.722;9.106;2022-07-01T07:25:07;2.47;;;1.17;;
29664;SDS011;19584;48.722;9.106;2022-07-01T07:27:09;2.90;;;0.57;;
29664;SDS011;19584;48.722;9.106;2022-07-01T07:29:11;3.60;;;0.47;;
29664;SDS011;19584;48.722;9.106;2022-07-01T07:31:14;3.53;;;0.50;;
29664;SDS011;19584;48.722;9.106;2022-07-01T07:33:15;3.50;;;0.30;;
29664;SDS011;19584;48.722;9.106;2022-07-01T07:35:17;0.70;;;0.50;;
29664;SDS011;19584;48.722;9.106;2022-07-01T07:37:19;0.82;;;0.40;;
29664;SDS011;19584;48.722;9.106;2022-07-01T07:39:20;0.80;;;0.32;;
29664;SDS011;19584;48.722;9.106;2022-07-01T07:41:22;1.17;;;0.30;;
29664;SDS011;19584;48.722;9.106;2022-07-01T07:43:24;1.38;;;0.55;;
29664;SDS011;19584;48.722;9.106;2022-07-01T07:45:25;0.75;;;0.50;;
29664;SDS011;19584;48.722;9.106;2022-07-01T07:47:27;2.63;;;0.40;;
29664;SDS011;19584;48.722;9.106;2022-07-01T07:49:29;1.52;;;0.50;;
29664;SDS011;19584;48.722;9.106;2022-07-01T07:51:31;0.77;;;0.40;;
29664;SDS011;19584;48.722;9.106;2022-07-01T07:53:32;1.35;;;0.40;;
29664;SDS011;19584;48.722;9.106;2022-07-01T07:55:34;0.30;;;0.20;;
29664;SDS011;19584;48.722;9.106;2022-07-01T07:57:36;2.25;;;0.47;;
29664;SDS011;19584;48.722;9.106;2022-07-01T07:59:38;1.58;;;0.40;;
29664;SDS011;19584;48.722;9.106;2022-07-01T08:01:40;2.47;;;0.38;;
29664;SDS011;19584;48.722;9.106;2022-07-01T08:03:42;2.05;;;0.60;;
29664;SDS011;19584;48.722;9.106;2022-07-01T08:05:43;0.20;;;0.20;;
29664;SDS011;19584;48.722;9.106;2022-07-01T08:07:45;1.67;;;0.30;;
29664;SDS011;19584;48.722;9.106;2022-07-01T08:09:47;4.00;;;0.30;;
29664;SDS011;19584;48.722;9.106;2022-07-01T08:11:50;0.77;;;0.32;;
29664;SDS011;19584;48.722;9.106;2022-07-01T08:13:52;0.30;;;0.30;;
29664;SDS011;19584;48.722;9.106;2022-07-01T08:15:53;1.38;;;0.40;;
29664;SDS011;19584;48.722;9.106;2022-07-01T08:17:56;0.40;;;0.20;;
29664;SDS011;19584;48.722;9.106;2022-07-01T08:19:58;1.67;;;0.43;;
29664;SDS011;19584;48.722;9.106;2022-07-01T08:21:59;0.10;;;0.10;;
29664;SDS011;19584;48.722;9.106;2022-07-01T08:24:01;1.08;;;0.20;;
29664;SDS011;19584;48.722;9.106;2022-07-01T08:26:03;0.52;;;0.32;;
29664;SDS011;19584;48.722;9.106;2022-07-01T08:28:05;0.65;;;0.30;;
29664;SDS011;19584;48.722;9.106;2022-07-01T08:30:07;0.17;;;0.10;;
29664;SDS011;19584;48.722;9.106;2022-07-01T08:32:09;1.40;;;0.30;;
29664;SDS011;19584;48.722;9.106;2022-07-01T08:34:11;0.32;;;0.20;;
29664;SDS011;19584;48.722;9.106;2022-07-01T08:36:12;0.45;;;0.20;;
29664;SDS011;19584;48.722;9.106;2022-07-01T08:38:17;0.10;;;0.10;;
29664;SDS011;19584;48.722;9.106;2022-07-01T08:40:24;0.10;;;0.10;;
29664;SDS011;19584;48.722;9.106;2022-07-01T08:42:29;0.20;;;0.20;;
29664;SDS011;19584;48.722;9.106;2022-07-01T08:44:31;0.30;;;0.30;;
29664;SDS011;19584;48.722;9.106;2022-07-01T08:46:33;1.63;;;0.28;;
29664;SDS011;19584;48.722;9.106;2022-07-01T08:48:35;0.70;;;0.17;;
29664;SDS011;19584;48.722;9.106;2022-07-01T08:50:38;0.43;;;0.20;;
29664;SDS011;19584;48.722;9.106;2022-07-01T08:52:41;0.20;;;0.10;;
29664;SDS011;19584;48.722;9.106;2022-07-01T08:54:42;0.10;;;0.10;;
29664;SDS011;19584;48.722;9.106;2022-07-01T08:56:44;0.80;;;0.32;;
29664;SDS011;19584;48.722;9.106;2022-07-01T08:58:49;0.10;;;0.10;;
29664;SDS011;19584;48.722;9.106;2022-07-01T09:00:52;1.02;;;0.40;;
29664;SDS011;19584;48.722;9.106;2022-07-01T09:03:01;0.80;;;0.30;;
29664;SDS011;19584;48.722;9.106;2022-07-01T09:05:05;0.43;;;0.20;;
29664;SDS011;19584;48.722;9.106;2022-07-01T09:07:08;0.22;;;0.20;;
29664;SDS011;19584;48.722;9.106;2022-07-01T09:09:15;0.30;;;0.30;;
29664;SDS011;19584;48.722;9.106;2022-07-01T09:11:22;0.47;;;0.28;;
29664;SDS011;19584;48.722;9.106;2022-07-01T09:13:25;0.40;;;0.20;;
29664;SDS011;19584;48.722;9.106;2022-07-01T09:15:28;0.43;;;0.10;;
29664;SDS011;19584;48.722;9.106;2022-07-01T09:17:31;1.73;;;0.45;;
29664;SDS011;19584;48.722;9.106;2022-07-01T09:19:39;0.20;;;0.20;;
29664;SDS011;19584;48.722;9.106;2022-07-01T09:21:48;0.10;;;0.10;;
29664;SDS011;19584;48.722;9.106;2022-07-01T09:23:50;0.13;;;0.10;;
29664;SDS011;19584;48.722;9.106;2022-07-01T09:25:52;0.20;;;0.20;;
29664;SDS011;19584;48.722;9.106;2022-07-01T09:28:07;0.25;;;0.20;;
29664;SDS011;19584;48.722;9.106;2022-07-01T09:30:16;0.73;;;0.22;;
29664;SDS011;19584;48.722;9.106;2022-07-01T09:32:19;0.73;;;0.22;;
29664;SDS011;19584;48.722;9.106;2022-07-01T09:34:22;0.35;;;0.35;;
29664;SDS011;19584;48.722;9.106;2022-07-01T09:36:24;0.65;;;0.20;;
29664;SDS011;19584;48.722;9.106;2022-07-01T09:38:25;0.28;;;0.20;;
29664;SDS011;19584;48.722;9.106;2022-07-01T09:40:44;2.15;;;0.25;;
29664;SDS011;19584;48.722;9.106;2022-07-01T09:42:47;0.10;;;0.10;;
29664;SDS011;19584;48.722;9.106;2022-07-01T09:44:55;0.35;;;0.28;;
29664;SDS011;19584;48.722;9.106;2022-07-01T09:47:05;0.88;;;0.15;;
29664;SDS011;19584;48.722;9.106;2022-07-01T09:49:08;0.20;;;0.20;;
29664;SDS011;19584;48.722;9.106;2022-07-01T09:51:10;0.40;;;0.20;;
29664;SDS011;19584;48.722;9.106;2022-07-01T09:53:15;0.35;;;0.20;;
29664;SDS011;19584;48.722;9.106;2022-07-01T09:55:17;0.82;;;0.20;;
29664;SDS011;19584;48.722;9.106;2022-07-01T09:57:19;0.20;;;0.20;;
29664;SDS011;19584;48.722;9.106;2022-07-01T09:59:22;0.20;;;0.20;;
29664;SDS011;19584;48.722;9.106;2022-07-01T10:01:23;0.30;;;0.20;;
29664;SDS011;19584;48.722;9.106;2022-07-01T10:03:26;0.40;;;0.20;;
29664;SDS011;19584;48.722;9.106;2022-07-01T10:05:28;0.10;;;0.10;;
29664;SDS011;19584;48.722;9.106;2022-07-01T10:14:19;0.30;;;0.13;;
29664;SDS011;19584;48.722;9.106;2022-07-01T10:16:22;0.30;;;0.20;;
29664;SDS011;19584;48.722;9.106;2022-07-01T10:18:25;0.30;;;0.20;;
29664;SDS011;19584;48.722;9.106;2022-07-01T10:20:28;0.98;;;0.25;;
